sensor_id;sensor_type;location;lat;lon;timestamp;temperature;humidity
19928;DHT22;10126;50.876;4.470;2023-04-15T00:00:57;11.70;99.90
19928;DHT22;10126;50.876;4.470;2023-04-15T00:02:59;11.60;99.90
19928;DHT22;10126;50.876;4.470;2023-04-15T00:05:01;11.70;99.90
19928;DHT22;10126;50.876;4.470;2023-04-15T00:07:02;11.70;99.90
19928;DHT22;10126;50.876;4.470;2023-04-15T00:09:02;11.70;99.90
19928;DHT22;10126;50.876;4.470;2023-04-15T00:11:03;11.70;99.90
19928;DHT22;10126;50.876;4.470;2023-04-15T00:13:05;11.70;99.90
19928;DHT22;10126;50.876;4.470;2023-04-15T00:15:07;11.60;99.90
19928;DHT22;10126;50.876;4.470;2023-04-15T00:17:08;11.60;99.90
19928;DHT22;10126;50.876;4.470;2023-04-15T00:19:12;11.60;99.90
19928;DHT22;10126;50.876;4.470;2023-04-15T00:21:12;11.50;99.90
19928;DHT22;10126;50.876;4.470;2023-04-15T00:23:13;11.40;99.90
19928;DHT22;10126;50.876;4.470;2023-04-15T00:25:14;11.50;99.90
19928;DHT22;10126;50.876;4.470;2023-04-15T00:27:14;11.40;99.90
19928;DHT22;10126;50.876;4.470;2023-04-15T00:29:15;11.50;99.90
19928;DHT22;10126;50.876;4.470;2023-04-15T00:31:16;11.40;99.90
19928;DHT22;10126;50.876;4.470;2023-04-15T00:33:16;11.50;99.90
19928;DHT22;10126;50.876;4.470;2023-04-15T00:35:17;11.50;99.90
19928;DHT22;10126;50.876;4.470;2023-04-15T00:37:18;11.50;99.90
19928;DHT22;10126;50.876;4.470;2023-04-15T00:39:19;11.50;99.90
19928;DHT22;10126;50.876;4.470;2023-04-15T00:41:20;11.60;99.90
19928;DHT22;10126;50.876;4.470;2023-04-15T00:43:22;11.50;99.90
19928;DHT22;10126;50.876;4.470;2023-04-15T00:45:23;11.60;99.90
19928;DHT22;10126;50.876;4.470;2023-04-15T00:47:24;11.50;99.90
19928;DHT22;10126;50.876;4.470;2023-04-15T00:49:25;11.60;99.90
19928;DHT22;10126;50.876;4.470;2023-04-15T00:51:28;11.50;99.90
19928;DHT22;10126;50.876;4.470;2023-04-15T00:53:28;11.60;99.90
19928;DHT22;10126;50.876;4.470;2023-04-15T00:55:29;11.50;99.90
19928;DHT22;10126;50.876;4.470;2023-04-15T00:57:30;11.60;99.90
19928;DHT22;10126;50.876;4.470;2023-04-15T00:59:32;11.60;99.90
19928;DHT22;10126;50.876;4.470;2023-04-15T01:01:35;11.50;99.90
19928;DHT22;10126;50.876;4.470;2023-04-15T01:03:35;11.50;99.90
19928;DHT22;10126;50.876;4.470;2023-04-15T01:05:36;11.50;99.90
19928;DHT22;10126;50.876;4.470;2023-04-15T01:07:37;11.60;99.90
19928;DHT22;10126;50.876;4.470;2023-04-15T01:09:38;11.60;99.90
19928;DHT22;10126;50.876;4.470;2023-04-15T01:11:39;11.70;99.90
19928;DHT22;10126;50.876;4.470;2023-04-15T01:13:40;11.60;99.90
19928;DHT22;10126;50.876;4.470;2023-04-15T01:15:41;11.60;99.90
19928;DHT22;10126;50.876;4.470;2023-04-15T01:17:42;11.50;99.90
19928;DHT22;10126;50.876;4.470;2023-04-15T01:19:42;11.20;99.90
19928;DHT22;10126;50.876;4.470;2023-04-15T01:21:44;11.20;99.90
19928;DHT22;10126;50.876;4.470;2023-04-15T01:23:46;11.00;99.90
19928;DHT22;10126;50.876;4.470;2023-04-15T01:25:48;10.90;99.90
19928;DHT22;10126;50.876;4.470;2023-04-15T01:27:49;10.90;99.90
19928;DHT22;10126;50.876;4.470;2023-04-15T01:29:50;11.10;99.90
19928;DHT22;10126;50.876;4.470;2023-04-15T01:31:52;11.20;99.90
19928;DHT22;10126;50.876;4.470;2023-04-15T01:33:53;11.30;99.90
19928;DHT22;10126;50.876;4.470;2023-04-15T01:35:54;11.20;99.90
19928;DHT22;10126;50.876;4.470;2023-04-15T01:38:03;11.30;99.90
19928;DHT22;10126;50.876;4.470;2023-04-15T01:40:05;11.40;99.90
19928;DHT22;10126;50.876;4.470;2023-04-15T01:42:06;11.30;99.90
19928;DHT22;10126;50.876;4.470;2023-04-15T01:44:07;11.30;99.90
19928;DHT22;10126;50.876;4.470;2023-04-15T01:46:08;11.30;99.90
19928;DHT22;10126;50.876;4.470;2023-04-15T01:48:08;11.30;99.90
19928;DHT22;10126;50.876;4.470;2023-04-15T01:50:09;11.30;99.90
19928;DHT22;10126;50.876;4.470;2023-04-15T01:52:10;11.40;99.90
19928;DHT22;10126;50.876;4.470;2023-04-15T01:54:10;11.40;99.90
19928;DHT22;10126;50.876;4.470;2023-04-15T01:56:11;11.40;99.90
19928;DHT22;10126;50.876;4.470;2023-04-15T01:58:11;11.40;99.90
19928;DHT22;10126;50.876;4.470;2023-04-15T02:00:12;11.30;99.90
19928;DHT22;10126;50.876;4.470;2023-04-15T02:02:13;11.20;99.90
19928;DHT22;10126;50.876;4.470;2023-04-15T02:04:14;11.10;99.90
19928;DHT22;10126;50.876;4.470;2023-04-15T02:06:18;10.90;99.90
19928;DHT22;10126;50.876;4.470;2023-04-15T02:08:18;10.70;99.90
19928;DHT22;10126;50.876;4.470;2023-04-15T02:10:19;10.80;99.90
19928;DHT22;10126;50.876;4.470;2023-04-15T02:12:20;10.80;99.90
19928;DHT22;10126;50.876;4.470;2023-04-15T02:14:21;10.70;99.90
19928;DHT22;10126;50.876;4.470;2023-04-15T02:16:22;10.70;99.90
19928;DHT22;10126;50.876;4.470;2023-04-15T02:18:22;10.80;99.90
19928;DHT22;10126;50.876;4.470;2023-04-15T02:20:23;10.70;99.90
19928;DHT22;10126;50.876;4.470;2023-04-15T02:22:24;10.70;99.90
19928;DHT22;10126;50.876;4.470;2023-04-15T02:24:25;10.60;99.90
19928;DHT22;10126;50.876;4.470;2023-04-15T02:26:25;10.60;99.90
19928;DHT22;10126;50.876;4.470;2023-04-15T02:28:26;10.50;99.90
19928;DHT22;10126;50.876;4.470;2023-04-15T02:30:26;10.50;99.90
19928;DHT22;10126;50.876;4.470;2023-04-15T02:32:27;10.50;99.90
19928;DHT22;10126;50.876;4.470;2023-04-15T02:34:28;10.50;99.90
19928;DHT22;10126;50.876;4.470;2023-04-15T02:36:30;10.50;99.90
19928;DHT22;10126;50.876;4.470;2023-04-15T02:38:31;10.50;99.90
19928;DHT22;10126;50.876;4.470;2023-04-15T02:40:31;10.60;99.90
19928;DHT22;10126;50.876;4.470;2023-04-15T02:42:32;10.70;99.90
19928;DHT22;10126;50.876;4.470;2023-04-15T02:44:33;10.70;99.90
19928;DHT22;10126;50.876;4.470;2023-04-15T02:46:35;10.60;99.90
19928;DHT22;10126;50.876;4.470;2023-04-15T02:48:36;10.60;99.90
19928;DHT22;10126;50.876;4.470;2023-04-15T02:50:37;10.70;99.90
19928;DHT22;10126;50.876;4.470;2023-04-15T02:52:41;10.80;99.90
19928;DHT22;10126;50.876;4.470;2023-04-15T02:54:42;10.80;99.90
19928;DHT22;10126;50.876;4.470;2023-04-15T02:56:42;10.70;99.90
19928;DHT22;10126;50.876;4.470;2023-04-15T02:58:43;10.80;99.90
19928;DHT22;10126;50.876;4.470;2023-04-15T03:00:45;11.00;99.90
19928;DHT22;10126;50.876;4.470;2023-04-15T03:02:45;10.90;99.90
19928;DHT22;10126;50.876;4.470;2023-04-15T03:04:46;10.50;99.90
19928;DHT22;10126;50.876;4.470;2023-04-15T03:06:47;10.30;99.90
19928;DHT22;10126;50.876;4.470;2023-04-15T03:08:47;10.20;99.90
19928;DHT22;10126;50.876;4.470;2023-04-15T03:10:48;10.20;99.90
19928;DHT22;10126;50.876;4.470;2023-04-15T03:12:51;10.30;99.90
19928;DHT22;10126;50.876;4.470;2023-04-15T03:14:52;10.20;99.90
19928;DHT22;10126;50.876;4.470;2023-04-15T03:16:52;10.10;99.90
19928;DHT22;10126;50.876;4.470;2023-04-15T03:18:53;10.00;99.90
19928;DHT22;10126;50.876;4.470;2023-04-15T03:20:54;9.90;99.90
19928;DHT22;10126;50.876;4.470;2023-04-15T03:22:54;10.10;99.90
19928;DHT22;10126;50.876;4.470;2023-04-15T03:24:55;10.00;99.90
19928;DHT22;10126;50.876;4.470;2023-04-15T03:26:56;9.80;99.90
19928;DHT22;10126;50.876;4.470;2023-04-15T03:28:57;9.60;99.90
19928;DHT22;10126;50.876;4.470;2023-04-15T03:30:58;9.50;99.90
19928;DHT22;10126;50.876;4.470;2023-04-15T03:32:59;9.50;99.90
19928;DHT22;10126;50.876;4.470;2023-04-15T03:35:00;9.50;99.90
19928;DHT22;10126;50.876;4.470;2023-04-15T03:37:01;9.50;99.90
19928;DHT22;10126;50.876;4.470;2023-04-15T03:39:01;9.50;99.90
19928;DHT22;10126;50.876;4.470;2023-04-15T03:41:02;9.40;99.90
19928;DHT22;10126;50.876;4.470;2023-04-15T03:43:03;9.40;99.90
19928;DHT22;10126;50.876;4.470;2023-04-15T03:45:04;9.30;99.90
19928;DHT22;10126;50.876;4.470;2023-04-15T03:47:05;9.30;99.90
19928;DHT22;10126;50.876;4.470;2023-04-15T03:49:06;9.50;99.90
19928;DHT22;10126;50.876;4.470;2023-04-15T03:51:06;9.50;99.90
19928;DHT22;10126;50.876;4.470;2023-04-15T03:53:07;9.50;99.90
19928;DHT22;10126;50.876;4.470;2023-04-15T03:55:08;9.60;99.90
19928;DHT22;10126;50.876;4.470;2023-04-15T03:57:09;9.70;99.90
19928;DHT22;10126;50.876;4.470;2023-04-15T03:59:09;9.60;99.90
19928;DHT22;10126;50.876;4.470;2023-04-15T04:01:10;9.70;99.90
19928;DHT22;10126;50.876;4.470;2023-04-15T04:03:11;9.80;99.90
19928;DHT22;10126;50.876;4.470;2023-04-15T04:05:12;9.70;99.90
19928;DHT22;10126;50.876;4.470;2023-04-15T04:07:16;9.70;99.90
19928;DHT22;10126;50.876;4.470;2023-04-15T04:09:17;9.50;99.90
19928;DHT22;10126;50.876;4.470;2023-04-15T04:11:17;9.60;99.90
19928;DHT22;10126;50.876;4.470;2023-04-15T04:13:18;9.70;99.90
19928;DHT22;10126;50.876;4.470;2023-04-15T04:15:18;9.80;99.90
19928;DHT22;10126;50.876;4.470;2023-04-15T04:17:22;10.00;99.90
19928;DHT22;10126;50.876;4.470;2023-04-15T04:19:23;10.00;99.90
19928;DHT22;10126;50.876;4.470;2023-04-15T04:21:23;9.90;99.90
19928;DHT22;10126;50.876;4.470;2023-04-15T04:23:24;9.80;99.90
19928;DHT22;10126;50.876;4.470;2023-04-15T04:25:25;10.00;99.90
19928;DHT22;10126;50.876;4.470;2023-04-15T04:27:26;10.10;99.90
19928;DHT22;10126;50.876;4.470;2023-04-15T04:29:27;10.10;99.90
19928;DHT22;10126;50.876;4.470;2023-04-15T04:31:27;10.20;99.90
19928;DHT22;10126;50.876;4.470;2023-04-15T04:33:28;10.20;99.90
19928;DHT22;10126;50.876;4.470;2023-04-15T04:35:29;10.10;99.90
19928;DHT22;10126;50.876;4.470;2023-04-15T04:37:29;10.10;99.90
19928;DHT22;10126;50.876;4.470;2023-04-15T04:39:30;10.00;99.90
19928;DHT22;10126;50.876;4.470;2023-04-15T04:41:32;9.80;99.90
19928;DHT22;10126;50.876;4.470;2023-04-15T04:43:32;9.70;99.90
19928;DHT22;10126;50.876;4.470;2023-04-15T04:45:33;9.70;99.90
19928;DHT22;10126;50.876;4.470;2023-04-15T04:47:33;9.70;99.90
19928;DHT22;10126;50.876;4.470;2023-04-15T04:49:34;9.80;99.90
19928;DHT22;10126;50.876;4.470;2023-04-15T04:51:36;9.80;99.90
19928;DHT22;10126;50.876;4.470;2023-04-15T04:53:36;9.90;99.90
19928;DHT22;10126;50.876;4.470;2023-04-15T04:55:37;9.90;99.90
19928;DHT22;10126;50.876;4.470;2023-04-15T04:57:38;9.90;99.90
19928;DHT22;10126;50.876;4.470;2023-04-15T04:59:41;10.10;99.90
19928;DHT22;10126;50.876;4.470;2023-04-15T05:01:42;10.40;99.90
19928;DHT22;10126;50.876;4.470;2023-04-15T05:03:43;10.50;99.90
19928;DHT22;10126;50.876;4.470;2023-04-15T05:05:43;10.50;99.90
19928;DHT22;10126;50.876;4.470;2023-04-15T05:07:44;10.50;99.90
19928;DHT22;10126;50.876;4.470;2023-04-15T05:09:44;10.50;99.90
19928;DHT22;10126;50.876;4.470;2023-04-15T05:11:45;10.50;99.90
19928;DHT22;10126;50.876;4.470;2023-04-15T05:13:46;10.50;99.90
19928;DHT22;10126;50.876;4.470;2023-04-15T05:15:46;10.50;99.90
19928;DHT22;10126;50.876;4.470;2023-04-15T05:17:47;10.50;99.90
19928;DHT22;10126;50.876;4.470;2023-04-15T05:19:48;10.30;99.90
19928;DHT22;10126;50.876;4.470;2023-04-15T05:21:48;10.30;99.90
19928;DHT22;10126;50.876;4.470;2023-04-15T05:23:49;10.00;99.90
19928;DHT22;10126;50.876;4.470;2023-04-15T05:25:50;9.80;99.90
19928;DHT22;10126;50.876;4.470;2023-04-15T05:27:50;9.50;99.90
19928;DHT22;10126;50.876;4.470;2023-04-15T05:29:51;9.20;99.90
19928;DHT22;10126;50.876;4.470;2023-04-15T05:31:52;9.10;99.90
19928;DHT22;10126;50.876;4.470;2023-04-15T05:33:52;9.10;99.90
19928;DHT22;10126;50.876;4.470;2023-04-15T05:35:53;9.10;99.90
19928;DHT22;10126;50.876;4.470;2023-04-15T05:37:53;9.00;99.90
19928;DHT22;10126;50.876;4.470;2023-04-15T05:39:54;9.10;99.90
19928;DHT22;10126;50.876;4.470;2023-04-15T05:41:56;8.90;99.90
19928;DHT22;10126;50.876;4.470;2023-04-15T05:43:57;8.80;99.90
19928;DHT22;10126;50.876;4.470;2023-04-15T05:45:57;8.70;99.90
19928;DHT22;10126;50.876;4.470;2023-04-15T05:47:58;8.70;99.90
19928;DHT22;10126;50.876;4.470;2023-04-15T05:49:58;8.90;99.90
19928;DHT22;10126;50.876;4.470;2023-04-15T05:51:59;8.80;99.90
19928;DHT22;10126;50.876;4.470;2023-04-15T05:54:00;8.70;99.90
19928;DHT22;10126;50.876;4.470;2023-04-15T05:56:01;8.60;99.90
19928;DHT22;10126;50.876;4.470;2023-04-15T05:58:01;9.00;99.90
19928;DHT22;10126;50.876;4.470;2023-04-15T06:00:04;9.10;99.90
19928;DHT22;10126;50.876;4.470;2023-04-15T06:02:04;9.20;99.90
19928;DHT22;10126;50.876;4.470;2023-04-15T06:04:05;9.30;99.90
19928;DHT22;10126;50.876;4.470;2023-04-15T06:06:06;9.50;99.90
19928;DHT22;10126;50.876;4.470;2023-04-15T06:08:07;9.90;99.90
19928;DHT22;10126;50.876;4.470;2023-04-15T06:10:08;10.00;99.90
19928;DHT22;10126;50.876;4.470;2023-04-15T06:12:09;9.90;99.90
19928;DHT22;10126;50.876;4.470;2023-04-15T06:14:11;10.20;99.90
19928;DHT22;10126;50.876;4.470;2023-04-15T06:16:12;10.50;99.90
19928;DHT22;10126;50.876;4.470;2023-04-15T06:18:12;10.60;99.90
19928;DHT22;10126;50.876;4.470;2023-04-15T06:20:14;10.40;99.90
19928;DHT22;10126;50.876;4.470;2023-04-15T06:22:15;9.80;99.90
19928;DHT22;10126;50.876;4.470;2023-04-15T06:24:16;9.60;99.90
19928;DHT22;10126;50.876;4.470;2023-04-15T06:26:16;9.60;99.90
19928;DHT22;10126;50.876;4.470;2023-04-15T06:28:17;9.60;99.90
19928;DHT22;10126;50.876;4.470;2023-04-15T06:30:18;9.70;99.90
19928;DHT22;10126;50.876;4.470;2023-04-15T06:32:18;10.10;99.90
19928;DHT22;10126;50.876;4.470;2023-04-15T06:34:19;10.10;99.90
19928;DHT22;10126;50.876;4.470;2023-04-15T06:36:20;10.20;99.90
19928;DHT22;10126;50.876;4.470;2023-04-15T06:38:21;10.10;99.90
19928;DHT22;10126;50.876;4.470;2023-04-15T06:40:21;10.10;99.90
19928;DHT22;10126;50.876;4.470;2023-04-15T06:42:22;10.20;99.90
19928;DHT22;10126;50.876;4.470;2023-04-15T06:44:23;10.20;99.90
19928;DHT22;10126;50.876;4.470;2023-04-15T06:46:23;9.90;99.90
19928;DHT22;10126;50.876;4.470;2023-04-15T06:48:25;10.00;99.90
19928;DHT22;10126;50.876;4.470;2023-04-15T06:50:26;10.20;99.90
19928;DHT22;10126;50.876;4.470;2023-04-15T06:52:27;10.40;99.90
19928;DHT22;10126;50.876;4.470;2023-04-15T06:54:28;10.60;99.90
19928;DHT22;10126;50.876;4.470;2023-04-15T06:56:28;11.00;99.90
19928;DHT22;10126;50.876;4.470;2023-04-15T06:58:29;10.90;99.90
19928;DHT22;10126;50.876;4.470;2023-04-15T07:00:30;10.90;99.90
19928;DHT22;10126;50.876;4.470;2023-04-15T07:02:33;10.90;99.90
19928;DHT22;10126;50.876;4.470;2023-04-15T07:04:33;11.00;99.90
19928;DHT22;10126;50.876;4.470;2023-04-15T07:06:34;11.20;99.90
19928;DHT22;10126;50.876;4.470;2023-04-15T07:08:35;11.60;99.90
19928;DHT22;10126;50.876;4.470;2023-04-15T07:10:36;11.90;99.90
19928;DHT22;10126;50.876;4.470;2023-04-15T07:12:37;12.40;99.90
19928;DHT22;10126;50.876;4.470;2023-04-15T07:14:38;12.50;99.90
19928;DHT22;10126;50.876;4.470;2023-04-15T07:16:38;12.70;99.90
19928;DHT22;10126;50.876;4.470;2023-04-15T07:18:39;12.90;99.90
19928;DHT22;10126;50.876;4.470;2023-04-15T07:20:39;12.40;99.90
19928;DHT22;10126;50.876;4.470;2023-04-15T07:22:40;12.30;99.90
19928;DHT22;10126;50.876;4.470;2023-04-15T07:24:41;12.20;99.90
19928;DHT22;10126;50.876;4.470;2023-04-15T07:26:41;12.10;99.90
19928;DHT22;10126;50.876;4.470;2023-04-15T07:28:43;12.10;99.90
19928;DHT22;10126;50.876;4.470;2023-04-15T07:30:45;11.90;99.90
19928;DHT22;10126;50.876;4.470;2023-04-15T07:32:46;11.80;99.90
19928;DHT22;10126;50.876;4.470;2023-04-15T07:34:46;11.80;99.90
19928;DHT22;10126;50.876;4.470;2023-04-15T07:36:50;12.00;99.90
19928;DHT22;10126;50.876;4.470;2023-04-15T07:38:51;12.20;99.90
19928;DHT22;10126;50.876;4.470;2023-04-15T07:40:52;13.00;99.90
19928;DHT22;10126;50.876;4.470;2023-04-15T07:42:52;12.90;99.90
19928;DHT22;10126;50.876;4.470;2023-04-15T07:44:53;12.90;99.90
19928;DHT22;10126;50.876;4.470;2023-04-15T07:46:56;13.20;99.90
19928;DHT22;10126;50.876;4.470;2023-04-15T07:48:57;13.70;99.90
19928;DHT22;10126;50.876;4.470;2023-04-15T07:50:58;13.70;99.90
19928;DHT22;10126;50.876;4.470;2023-04-15T07:52:58;13.50;99.90
19928;DHT22;10126;50.876;4.470;2023-04-15T07:54:59;13.40;99.90
19928;DHT22;10126;50.876;4.470;2023-04-15T07:57:00;13.40;99.90
19928;DHT22;10126;50.876;4.470;2023-04-15T07:59:00;14.10;99.90
19928;DHT22;10126;50.876;4.470;2023-04-15T08:01:08;14.90;99.90
19928;DHT22;10126;50.876;4.470;2023-04-15T08:03:09;15.80;99.90
19928;DHT22;10126;50.876;4.470;2023-04-15T08:05:10;16.10;99.90
19928;DHT22;10126;50.876;4.470;2023-04-15T08:07:11;16.50;99.90
19928;DHT22;10126;50.876;4.470;2023-04-15T08:09:11;16.70;99.90
19928;DHT22;10126;50.876;4.470;2023-04-15T08:11:12;16.40;99.90
19928;DHT22;10126;50.876;4.470;2023-04-15T08:13:13;17.20;99.90
19928;DHT22;10126;50.876;4.470;2023-04-15T08:15:13;16.70;99.90
19928;DHT22;10126;50.876;4.470;2023-04-15T08:17:14;17.10;99.90
19928;DHT22;10126;50.876;4.470;2023-04-15T08:19:15;17.20;99.90
19928;DHT22;10126;50.876;4.470;2023-04-15T08:21:17;17.10;99.90
19928;DHT22;10126;50.876;4.470;2023-04-15T08:23:18;17.20;99.90
19928;DHT22;10126;50.876;4.470;2023-04-15T08:25:18;16.70;99.90
19928;DHT22;10126;50.876;4.470;2023-04-15T08:27:19;16.10;99.90
19928;DHT22;10126;50.876;4.470;2023-04-15T08:29:20;15.20;99.90
19928;DHT22;10126;50.876;4.470;2023-04-15T08:31:20;14.90;99.90
19928;DHT22;10126;50.876;4.470;2023-04-15T08:33:21;15.00;99.90
19928;DHT22;10126;50.876;4.470;2023-04-15T08:35:24;15.50;99.90
19928;DHT22;10126;50.876;4.470;2023-04-15T08:37:25;15.50;99.90
19928;DHT22;10126;50.876;4.470;2023-04-15T08:39:26;16.60;99.90
19928;DHT22;10126;50.876;4.470;2023-04-15T08:41:33;16.80;99.90
19928;DHT22;10126;50.876;4.470;2023-04-15T08:43:41;17.90;99.90
19928;DHT22;10126;50.876;4.470;2023-04-15T08:45:46;18.70;99.90
19928;DHT22;10126;50.876;4.470;2023-04-15T08:47:50;19.40;99.90
19928;DHT22;10126;50.876;4.470;2023-04-15T08:49:56;19.00;99.90
19928;DHT22;10126;50.876;4.470;2023-04-15T08:51:59;18.50;99.90
19928;DHT22;10126;50.876;4.470;2023-04-15T08:54:01;19.00;99.90
19928;DHT22;10126;50.876;4.470;2023-04-15T08:56:04;19.10;99.90
19928;DHT22;10126;50.876;4.470;2023-04-15T08:58:07;20.20;99.90
19928;DHT22;10126;50.876;4.470;2023-04-15T09:00:08;19.60;99.90
19928;DHT22;10126;50.876;4.470;2023-04-15T09:02:10;20.50;99.90
19928;DHT22;10126;50.876;4.470;2023-04-15T09:04:11;20.50;99.90
19928;DHT22;10126;50.876;4.470;2023-04-15T09:06:12;20.70;99.90
19928;DHT22;10126;50.876;4.470;2023-04-15T09:08:14;19.80;99.90
19928;DHT22;10126;50.876;4.470;2023-04-15T09:10:14;18.70;99.90
19928;DHT22;10126;50.876;4.470;2023-04-15T09:12:15;17.80;99.90
19928;DHT22;10126;50.876;4.470;2023-04-15T09:14:16;18.20;99.90
19928;DHT22;10126;50.876;4.470;2023-04-15T09:16:17;18.50;99.90
19928;DHT22;10126;50.876;4.470;2023-04-15T09:18:27;19.30;99.90
19928;DHT22;10126;50.876;4.470;2023-04-15T09:20:29;19.30;99.90
19928;DHT22;10126;50.876;4.470;2023-04-15T09:22:32;19.50;99.90
19928;DHT22;10126;50.876;4.470;2023-04-15T09:24:35;20.30;99.90
19928;DHT22;10126;50.876;4.470;2023-04-15T09:26:37;19.90;99.90
19928;DHT22;10126;50.876;4.470;2023-04-15T09:28:42;18.90;99.90
19928;DHT22;10126;50.876;4.470;2023-04-15T09:30:43;18.80;99.90
19928;DHT22;10126;50.876;4.470;2023-04-15T09:33:05;18.50;99.90
19928;DHT22;10126;50.876;4.470;2023-04-15T09:35:10;17.70;99.90
19928;DHT22;10126;50.876;4.470;2023-04-15T09:37:12;17.70;99.90
19928;DHT22;10126;50.876;4.470;2023-04-15T09:39:15;17.90;99.90
19928;DHT22;10126;50.876;4.470;2023-04-15T09:41:16;18.00;99.90
19928;DHT22;10126;50.876;4.470;2023-04-15T09:43:20;18.20;99.90
19928;DHT22;10126;50.876;4.470;2023-04-15T09:45:21;18.00;99.90
19928;DHT22;10126;50.876;4.470;2023-04-15T09:47:31;17.70;99.90
19928;DHT22;10126;50.876;4.470;2023-04-15T09:49:32;16.80;99.90
19928;DHT22;10126;50.876;4.470;2023-04-15T09:51:36;16.80;99.90
19928;DHT22;10126;50.876;4.470;2023-04-15T09:53:37;17.20;99.90
19928;DHT22;10126;50.876;4.470;2023-04-15T09:55:37;17.50;99.90
19928;DHT22;10126;50.876;4.470;2023-04-15T09:57:39;17.90;99.90
19928;DHT22;10126;50.876;4.470;2023-04-15T09:59:40;17.80;99.90
19928;DHT22;10126;50.876;4.470;2023-04-15T10:01:44;18.00;99.90
19928;DHT22;10126;50.876;4.470;2023-04-15T10:03:45;18.10;99.90
19928;DHT22;10126;50.876;4.470;2023-04-15T10:05:48;18.10;99.90
19928;DHT22;10126;50.876;4.470;2023-04-15T10:07:49;17.70;99.90
19928;DHT22;10126;50.876;4.470;2023-04-15T10:09:50;17.60;99.90
19928;DHT22;10126;50.876;4.470;2023-04-15T10:11:52;17.60;99.90
19928;DHT22;10126;50.876;4.470;2023-04-15T10:13:53;17.60;99.90
19928;DHT22;10126;50.876;4.470;2023-04-15T10:16:21;17.40;99.90
19928;DHT22;10126;50.876;4.470;2023-04-15T10:18:24;16.80;99.90
19928;DHT22;10126;50.876;4.470;2023-04-15T10:20:28;15.70;99.90
19928;DHT22;10126;50.876;4.470;2023-04-15T10:22:29;15.30;99.90
19928;DHT22;10126;50.876;4.470;2023-04-15T10:24:31;15.40;99.90
19928;DHT22;10126;50.876;4.470;2023-04-15T10:26:32;15.10;99.90
19928;DHT22;10126;50.876;4.470;2023-04-15T10:28:33;14.90;99.90
19928;DHT22;10126;50.876;4.470;2023-04-15T10:30:35;14.80;99.90
19928;DHT22;10126;50.876;4.470;2023-04-15T10:32:37;14.70;99.90
19928;DHT22;10126;50.876;4.470;2023-04-15T10:34:38;14.70;99.90
19928;DHT22;10126;50.876;4.470;2023-04-15T10:36:39;14.80;99.90
19928;DHT22;10126;50.876;4.470;2023-04-15T10:38:44;14.90;99.90
19928;DHT22;10126;50.876;4.470;2023-04-15T10:40:46;14.80;99.90
19928;DHT22;10126;50.876;4.470;2023-04-15T10:42:46;14.70;99.90
19928;DHT22;10126;50.876;4.470;2023-04-15T10:44:49;14.70;99.90
19928;DHT22;10126;50.876;4.470;2023-04-15T10:46:52;14.70;99.90
19928;DHT22;10126;50.876;4.470;2023-04-15T10:48:53;14.90;99.90
19928;DHT22;10126;50.876;4.470;2023-04-15T10:50:59;15.10;99.90
19928;DHT22;10126;50.876;4.470;2023-04-15T10:53:02;15.10;99.90
19928;DHT22;10126;50.876;4.470;2023-04-15T10:55:12;15.30;99.90
19928;DHT22;10126;50.876;4.470;2023-04-15T10:57:21;15.10;99.90
19928;DHT22;10126;50.876;4.470;2023-04-15T10:59:22;15.10;99.90
19928;DHT22;10126;50.876;4.470;2023-04-15T11:01:49;15.10;99.90
19928;DHT22;10126;50.876;4.470;2023-04-15T11:03:50;14.90;99.90
19928;DHT22;10126;50.876;4.470;2023-04-15T11:05:52;14.80;99.90
19928;DHT22;10126;50.876;4.470;2023-04-15T11:07:54;14.70;99.90
19928;DHT22;10126;50.876;4.470;2023-04-15T11:09:55;14.70;99.90
19928;DHT22;10126;50.876;4.470;2023-04-15T11:12:07;14.80;99.90
19928;DHT22;10126;50.876;4.470;2023-04-15T11:14:14;14.90;99.90
19928;DHT22;10126;50.876;4.470;2023-04-15T11:16:15;15.10;99.90
19928;DHT22;10126;50.876;4.470;2023-04-15T11:18:21;15.00;99.90
19928;DHT22;10126;50.876;4.470;2023-04-15T11:20:22;14.90;99.90
19928;DHT22;10126;50.876;4.470;2023-04-15T11:22:23;14.70;99.90
19928;DHT22;10126;50.876;4.470;2023-04-15T11:24:24;14.80;99.90
19928;DHT22;10126;50.876;4.470;2023-04-15T11:26:27;14.70;99.90
19928;DHT22;10126;50.876;4.470;2023-04-15T11:28:30;14.90;99.90
19928;DHT22;10126;50.876;4.470;2023-04-15T11:30:34;14.80;99.90
19928;DHT22;10126;50.876;4.470;2023-04-15T11:32:35;14.90;99.90
19928;DHT22;10126;50.876;4.470;2023-04-15T11:34:36;15.00;99.90
19928;DHT22;10126;50.876;4.470;2023-04-15T11:36:36;15.10;99.90
19928;DHT22;10126;50.876;4.470;2023-04-15T11:38:41;15.00;99.90
19928;DHT22;10126;50.876;4.470;2023-04-15T11:40:43;15.00;99.90
19928;DHT22;10126;50.876;4.470;2023-04-15T11:42:43;15.20;99.90
19928;DHT22;10126;50.876;4.470;2023-04-15T11:44:44;15.00;99.90
19928;DHT22;10126;50.876;4.470;2023-04-15T11:46:45;14.90;99.90
19928;DHT22;10126;50.876;4.470;2023-04-15T11:48:46;15.00;99.90
19928;DHT22;10126;50.876;4.470;2023-04-15T11:50:58;15.10;99.90
19928;DHT22;10126;50.876;4.470;2023-04-15T11:53:01;15.20;99.90
19928;DHT22;10126;50.876;4.470;2023-04-15T11:55:03;15.30;99.90
19928;DHT22;10126;50.876;4.470;2023-04-15T11:57:03;15.20;99.90
19928;DHT22;10126;50.876;4.470;2023-04-15T11:59:04;15.40;99.90
19928;DHT22;10126;50.876;4.470;2023-04-15T12:01:05;15.40;99.90
19928;DHT22;10126;50.876;4.470;2023-04-15T12:03:21;15.00;99.90
19928;DHT22;10126;50.876;4.470;2023-04-15T12:05:21;15.00;99.90
19928;DHT22;10126;50.876;4.470;2023-04-15T12:07:22;15.20;99.90
19928;DHT22;10126;50.876;4.470;2023-04-15T12:09:22;15.30;99.90
19928;DHT22;10126;50.876;4.470;2023-04-15T12:11:31;15.30;99.90
19928;DHT22;10126;50.876;4.470;2023-04-15T12:13:32;15.30;99.90
19928;DHT22;10126;50.876;4.470;2023-04-15T12:15:32;15.30;99.90
19928;DHT22;10126;50.876;4.470;2023-04-15T12:17:39;15.20;99.90
19928;DHT22;10126;50.876;4.470;2023-04-15T12:19:41;15.30;99.90
19928;DHT22;10126;50.876;4.470;2023-04-15T12:21:47;15.30;99.90
19928;DHT22;10126;50.876;4.470;2023-04-15T12:23:55;15.60;99.90
19928;DHT22;10126;50.876;4.470;2023-04-15T12:25:56;15.70;99.90
19928;DHT22;10126;50.876;4.470;2023-04-15T12:27:57;15.60;99.90
19928;DHT22;10126;50.876;4.470;2023-04-15T12:30:04;15.50;99.90
19928;DHT22;10126;50.876;4.470;2023-04-15T12:32:15;15.70;99.90
19928;DHT22;10126;50.876;4.470;2023-04-15T12:34:17;15.80;99.90
19928;DHT22;10126;50.876;4.470;2023-04-15T12:36:23;15.70;99.90
19928;DHT22;10126;50.876;4.470;2023-04-15T12:38:24;15.20;99.90
19928;DHT22;10126;50.876;4.470;2023-04-15T12:40:25;15.40;99.90
19928;DHT22;10126;50.876;4.470;2023-04-15T12:42:25;15.50;99.90
19928;DHT22;10126;50.876;4.470;2023-04-15T12:44:27;15.70;99.90
19928;DHT22;10126;50.876;4.470;2023-04-15T12:46:27;15.70;99.90
19928;DHT22;10126;50.876;4.470;2023-04-15T12:48:28;15.70;99.90
19928;DHT22;10126;50.876;4.470;2023-04-15T12:50:29;15.60;99.90